Terminal Aerodrome Forecast
Issued by NWS

Home | Current Version | Previous Version | Text Only | Print | Product List | Glossary On
Versions: 1 2 3 4 5 6 7 8 9 10 11 12
000
FTUS45 KABQ 261100
TAFFMN
TAF
KFMN 261120Z 2612/2712 08010KT P6SM SKC
     FM261600 12008KT P6SM SKC
     FM262200 14010KT P6SM FEW250
     FM270300 12012KT P6SM SCT150 BKN200
     FM270700 10012KT P6SM BKN100=

USA.gov is the U.S. government's official web portal to all federal, state and local government web resources and services.